createdAt,value
2022-11-29T00:01:28.938Z,46.67
2022-11-29T00:03:56.004Z,45.78
2022-11-29T00:06:24.099Z,46.30
2022-11-29T00:08:50.863Z,48.35
2022-11-29T00:11:38.822Z,46.88
2022-11-29T00:14:06.368Z,47.60
2022-11-29T00:16:33.158Z,47.08
2022-11-29T00:18:59.936Z,47.35
2022-11-29T00:21:26.665Z,49.88
2022-11-29T00:23:53.688Z,49.75
2022-11-29T00:26:21.039Z,52.50
2022-11-29T00:28:47.922Z,51.40
2022-11-29T00:31:16.719Z,50.55
2022-11-29T00:33:43.820Z,48.65
2022-11-29T00:36:10.945Z,45.65
2022-11-29T00:38:37.769Z,46.85
2022-11-29T00:41:04.549Z,46.03
2022-11-29T00:43:31.585Z,44.83
2022-11-29T00:45:58.737Z,41.30
2022-11-29T00:48:25.517Z,42.08
2022-11-29T00:50:52.290Z,40.85
2022-11-29T00:53:19.011Z,43.47
2022-11-29T00:55:47.920Z,43.08
2022-11-29T00:58:14.584Z,43.70
2022-11-29T01:00:41.485Z,42.03
2022-11-29T01:03:08.275Z,43.00
2022-11-29T01:05:35.051Z,43.75
2022-11-29T01:08:01.757Z,43.20
2022-11-29T01:10:28.452Z,43.45
2022-11-29T01:12:55.412Z,41.20
2022-11-29T01:15:22.398Z,43.42
2022-11-29T01:17:49.527Z,43.67
2022-11-29T01:20:16.329Z,43.28
2022-11-29T01:22:43.654Z,43.33
2022-11-29T01:25:11.356Z,42.47
2022-11-29T01:27:38.022Z,41.80
2022-11-29T01:30:05.465Z,41.15
2022-11-29T01:32:32.240Z,38.83
2022-11-29T01:34:58.942Z,39.40
2022-11-29T01:37:25.609Z,38.25
2022-11-29T01:39:52.339Z,36.80
2022-11-29T01:42:19.220Z,36.78
2022-11-29T01:44:46.182Z,36.45
2022-11-29T01:47:13.198Z,35.53
2022-11-29T01:49:44.181Z,36.72
2022-11-29T01:52:11.042Z,35.25
2022-11-29T01:54:40.156Z,33.25
2022-11-29T01:57:07.684Z,34.08
2022-11-29T01:59:36.665Z,32.03
2022-11-29T02:02:06.558Z,34.22
2022-11-29T02:04:36.530Z,34.63
2022-11-29T02:07:03.307Z,33.25
2022-11-29T02:09:30.031Z,33.72
2022-11-29T02:11:56.750Z,33.20
2022-11-29T02:14:23.851Z,35.13
2022-11-29T02:16:59.456Z,34.25
2022-11-29T02:19:35.161Z,33.83
2022-11-29T02:22:13.418Z,34.75
2022-11-29T02:24:40.387Z,33.70
2022-11-29T02:27:07.404Z,35.00
2022-11-29T02:29:52.491Z,34.55
2022-11-29T02:32:37.780Z,34.13
2022-11-29T02:35:24.750Z,35.70
2022-11-29T02:38:11.701Z,32.10
2022-11-29T02:40:38.437Z,32.78
2022-11-29T02:43:13.665Z,33.40
2022-11-29T02:45:59.337Z,32.72
2022-11-29T02:48:41.090Z,31.17
2022-11-29T02:51:07.698Z,35.38
2022-11-29T02:53:40.222Z,35.00
2022-11-29T02:56:25.183Z,34.42
2022-11-29T02:59:10.676Z,36.83
2022-11-29T03:01:47.025Z,35.67
2022-11-29T03:04:23.699Z,36.45
2022-11-29T03:06:55.437Z,37.85
2022-11-29T03:09:28.846Z,39.65
2022-11-29T03:11:55.525Z,40.20
2022-11-29T03:14:25.336Z,39.22
2022-11-29T03:16:55.386Z,38.58
2022-11-29T03:19:34.645Z,38.38
2022-11-29T03:22:07.270Z,38.05
2022-11-29T03:24:54.757Z,36.30
2022-11-29T03:27:24.853Z,36.40
2022-11-29T03:30:02.483Z,37.22
2022-11-29T03:32:45.133Z,35.05
2022-11-29T03:35:16.884Z,36.28
2022-11-29T03:38:02.460Z,36.30
2022-11-29T03:40:39.003Z,35.80
2022-11-29T03:43:34.978Z,37.05
2022-11-29T03:46:20.611Z,35.90
2022-11-29T03:48:49.844Z,35.47
2022-11-29T03:51:20.051Z,34.72
2022-11-29T03:53:52.698Z,37.05
2022-11-29T03:56:25.601Z,34.35
2022-11-29T03:59:13.580Z,34.20
2022-11-29T04:01:43.343Z,33.30
2022-11-29T04:04:24.644Z,35.17
2022-11-29T04:07:11.562Z,34.78
2022-11-29T04:09:53.632Z,35.13
2022-11-29T04:12:32.545Z,35.50
2022-11-29T04:15:17.963Z,36.40
2022-11-29T04:17:50.649Z,35.42
2022-11-29T04:20:17.289Z,33.80
2022-11-29T04:22:50.327Z,34.67
2022-11-29T04:25:35.631Z,34.45
2022-11-29T04:28:17.770Z,37.17
2022-11-29T04:31:11.665Z,37.95
2022-11-29T04:33:57.710Z,36.55
2022-11-29T04:36:34.261Z,36.28
2022-11-29T04:39:07.309Z,36.42
2022-11-29T04:41:40.880Z,35.60
2022-11-29T04:44:10.885Z,35.15
2022-11-29T04:47:02.890Z,35.45
2022-11-29T04:49:48.385Z,34.05
2022-11-29T04:52:40.212Z,33.10
2022-11-29T04:55:30.675Z,33.10
2022-11-29T04:57:58.018Z,33.78
2022-11-29T05:00:26.028Z,34.03
2022-11-29T05:02:59.940Z,34.67
2022-11-29T05:05:29.776Z,36.13
2022-11-29T05:08:14.686Z,35.58
2022-11-29T05:11:00.159Z,33.95
2022-11-29T05:13:26.844Z,36.20
2022-11-29T05:16:12.098Z,34.90
2022-11-29T05:18:54.117Z,35.75
2022-11-29T05:21:26.926Z,36.25
2022-11-29T05:23:54.070Z,35.50
2022-11-29T05:26:27.136Z,35.25
2022-11-29T05:29:05.197Z,34.95
2022-11-29T05:31:44.940Z,33.30
2022-11-29T05:34:11.584Z,34.58
2022-11-29T05:36:41.488Z,33.50
2022-11-29T05:39:08.177Z,34.55
2022-11-29T05:41:37.995Z,34.50
2022-11-29T05:44:11.331Z,34.65
2022-11-29T05:46:56.741Z,36.10
2022-11-29T05:49:33.508Z,35.35
2022-11-29T05:52:06.156Z,35.30
2022-11-29T05:54:36.223Z,34.05
2022-11-29T05:57:06.008Z,33.08
2022-11-29T05:59:34.306Z,33.40
2022-11-29T06:02:09.935Z,34.05
2022-11-29T06:04:39.496Z,34.20
2022-11-29T06:07:23.109Z,34.80
2022-11-29T06:10:00.544Z,34.58
2022-11-29T06:12:30.903Z,34.22
2022-11-29T06:15:17.171Z,32.85
2022-11-29T06:17:48.836Z,32.38
2022-11-29T06:20:34.298Z,34.00
2022-11-29T06:23:11.444Z,34.03
2022-11-29T06:25:50.552Z,34.83
2022-11-29T06:28:17.245Z,34.00
2022-11-29T06:30:50.704Z,34.15
2022-11-29T06:33:18.046Z,36.53
2022-11-29T06:36:05.001Z,35.63
2022-11-29T06:38:31.683Z,34.83
2022-11-29T06:41:02.086Z,35.85
2022-11-29T06:43:29.554Z,37.10
2022-11-29T06:45:59.917Z,36.58
2022-11-29T06:48:27.832Z,38.05
2022-11-29T06:51:04.670Z,38.85
2022-11-29T06:53:37.538Z,39.83
2022-11-29T06:56:16.500Z,40.33
2022-11-29T06:59:05.832Z,42.58
2022-11-29T07:01:41.543Z,41.83
2022-11-29T07:04:29.353Z,44.60
2022-11-29T07:07:01.485Z,42.33
2022-11-29T07:09:32.833Z,43.58
2022-11-29T07:14:46.951Z,40.72
2022-11-29T07:17:22.415Z,41.00
2022-11-29T07:19:52.248Z,42.97
2022-11-29T07:22:36.681Z,42.33
2022-11-29T07:25:13.602Z,40.45
2022-11-29T07:27:47.116Z,41.65
2022-11-29T07:30:22.975Z,42.80
2022-11-29T07:32:51.437Z,40.58
2022-11-29T07:35:34.841Z,41.72
2022-11-29T07:38:13.974Z,42.13
2022-11-29T07:41:00.255Z,42.08
2022-11-29T07:43:33.231Z,39.05
2022-11-29T07:46:00.549Z,37.22
2022-11-29T07:48:30.081Z,38.70
2022-11-29T07:50:56.925Z,38.28
2022-11-29T07:53:30.285Z,37.60
2022-11-29T07:55:59.711Z,38.00
2022-11-29T07:58:32.497Z,36.60
2022-11-29T08:00:59.713Z,36.28
2022-11-29T08:03:33.844Z,37.22
2022-11-29T08:06:03.610Z,35.90
2022-11-29T08:08:42.267Z,35.58
2022-11-29T08:11:11.871Z,38.10
2022-11-29T08:13:40.804Z,38.05
2022-11-29T08:16:07.892Z,40.17
2022-11-29T08:18:41.235Z,39.10
2022-11-29T08:21:10.910Z,36.88
2022-11-29T08:23:38.924Z,40.90
2022-11-29T08:26:05.677Z,39.20
2022-11-29T08:28:32.376Z,38.75
2022-11-29T08:31:09.038Z,38.92
2022-11-29T08:33:49.239Z,39.53
2022-11-29T08:36:17.994Z,38.97
2022-11-29T08:38:52.642Z,36.88
2022-11-29T08:41:22.489Z,37.88
2022-11-29T08:43:50.302Z,38.03
2022-11-29T08:46:18.944Z,38.60
2022-11-29T08:48:50.914Z,36.83
2022-11-29T08:51:21.928Z,38.25
2022-11-29T08:53:51.705Z,39.05
2022-11-29T08:59:07.696Z,36.45
2022-11-29T09:01:37.292Z,34.10
2022-11-29T09:04:07.068Z,33.92
2022-11-29T09:06:37.053Z,35.17
2022-11-29T09:09:04.073Z,34.88
2022-11-29T09:11:46.891Z,37.47
2022-11-29T09:14:22.176Z,36.10
2022-11-29T09:16:53.834Z,35.40
2022-11-29T09:19:25.337Z,33.63
2022-11-29T09:21:51.985Z,34.97
2022-11-29T09:24:19.675Z,33.05
2022-11-29T09:26:48.500Z,32.65
2022-11-29T09:29:16.826Z,33.95
2022-11-29T09:31:50.840Z,33.25
2022-11-29T09:34:18.816Z,35.55
2022-11-29T09:36:48.318Z,38.90
2022-11-29T09:39:26.191Z,36.83
2022-11-29T09:42:08.155Z,29.75
2022-11-29T09:44:52.908Z,29.38
2022-11-29T09:47:43.765Z,27.98
2022-11-29T09:50:16.709Z,30.75
2022-11-29T09:52:52.726Z,34.05
2022-11-29T09:55:28.730Z,35.90
2022-11-29T09:57:59.600Z,36.25
2022-11-29T10:00:33.312Z,33.97
2022-11-29T10:05:49.408Z,32.53
2022-11-29T10:08:30.108Z,30.33
2022-11-29T10:11:01.810Z,29.88
2022-11-29T10:13:37.381Z,29.20
2022-11-29T10:16:19.274Z,29.40
2022-11-29T10:18:54.486Z,27.77
2022-11-29T10:21:31.234Z,31.83
2022-11-29T10:24:06.396Z,28.05
2022-11-29T10:26:36.049Z,24.20
2022-11-29T10:29:02.836Z,26.50
2022-11-29T10:31:35.003Z,28.02
2022-11-29T10:34:16.154Z,26.77
2022-11-29T10:36:50.400Z,23.27
2022-11-29T10:39:25.939Z,24.38
2022-11-29T10:42:01.617Z,21.95
2022-11-29T10:44:31.612Z,20.08
2022-11-29T10:47:11.325Z,22.02
2022-11-29T10:49:42.641Z,23.60
2022-11-29T10:52:18.231Z,23.85
2022-11-29T10:54:54.200Z,23.25
2022-11-29T10:57:26.646Z,22.30
2022-11-29T10:59:59.201Z,23.83
2022-11-29T11:02:27.944Z,23.70
2022-11-29T11:05:06.090Z,21.85
2022-11-29T11:07:35.968Z,23.27
2022-11-29T11:10:14.956Z,21.98
2022-11-29T11:13:01.498Z,23.13
2022-11-29T11:15:32.171Z,23.40
2022-11-29T11:18:12.886Z,23.95
2022-11-29T11:20:48.525Z,23.90
2022-11-29T11:23:42.704Z,23.17
2022-11-29T11:29:03.525Z,23.40
2022-11-29T11:31:41.970Z,22.38
2022-11-29T11:34:31.198Z,22.73
2022-11-29T11:37:17.462Z,21.95
2022-11-29T11:39:46.994Z,20.95
2022-11-29T11:42:37.795Z,23.02
2022-11-29T11:45:10.591Z,22.00
2022-11-29T11:47:43.817Z,21.52
2022-11-29T11:50:19.701Z,22.88
2022-11-29T11:52:53.400Z,21.80
2022-11-29T11:55:32.521Z,21.75
2022-11-29T11:58:09.801Z,22.40
2022-11-29T12:01:03.976Z,22.88
2022-11-29T12:03:31.475Z,21.38
2022-11-29T12:06:10.408Z,21.88
2022-11-29T12:08:38.135Z,22.85
2022-11-29T12:11:07.597Z,21.10
2022-11-29T12:13:43.913Z,21.27
2022-11-29T12:16:17.487Z,21.42
2022-11-29T12:18:53.666Z,19.88
2022-11-29T12:21:26.549Z,20.65
2022-11-29T12:23:53.192Z,20.58
2022-11-29T12:29:27.349Z,19.60
2022-11-29T12:32:00.903Z,19.52
2022-11-29T12:34:42.972Z,19.52
2022-11-29T12:41:26.841Z,20.15
2022-11-29T12:43:58.385Z,19.10
2022-11-29T12:46:27.545Z,17.95
2022-11-29T12:49:02.949Z,19.02
2022-11-29T12:51:35.952Z,18.67
2022-11-29T12:54:02.803Z,19.83
2022-11-29T12:56:29.517Z,18.33
2022-11-29T12:59:02.560Z,18.52
2022-11-29T13:01:45.013Z,18.27
2022-11-29T13:04:18.159Z,17.83
2022-11-29T13:06:44.906Z,18.88
2022-11-29T13:09:28.371Z,18.55
2022-11-29T13:11:55.483Z,18.20
2022-11-29T13:14:42.778Z,18.30
2022-11-29T13:17:21.260Z,19.60
2022-11-29T13:19:51.040Z,18.25
2022-11-29T13:22:26.685Z,17.70
2022-11-29T13:24:59.397Z,17.38
2022-11-29T13:27:38.295Z,17.83
2022-11-29T13:30:06.665Z,17.27
2022-11-29T13:32:43.317Z,16.83
2022-11-29T13:35:21.695Z,16.85
2022-11-29T13:37:55.151Z,16.30
2022-11-29T13:40:50.104Z,16.67
2022-11-29T13:43:41.546Z,18.25
2022-11-29T13:46:30.397Z,18.55
2022-11-29T13:49:02.616Z,17.42
2022-11-29T13:51:38.852Z,18.38
2022-11-29T13:54:09.541Z,18.02
2022-11-29T13:56:48.379Z,17.73
2022-11-29T13:59:22.718Z,17.63
2022-11-29T14:01:51.635Z,17.88
2022-11-29T14:04:18.707Z,17.85
2022-11-29T14:06:49.938Z,18.80
2022-11-29T14:09:24.616Z,18.80
2022-11-29T14:11:59.633Z,18.38
2022-11-29T14:14:37.043Z,19.10
2022-11-29T14:17:11.044Z,18.80
2022-11-29T14:19:41.865Z,18.48
2022-11-29T14:22:22.710Z,18.30
2022-11-29T14:25:16.643Z,18.95
2022-11-29T14:28:04.756Z,17.60
2022-11-29T14:30:42.241Z,18.10
2022-11-29T14:33:18.962Z,19.23
2022-11-29T14:35:59.576Z,18.08
2022-11-29T14:38:41.844Z,17.92
2022-11-29T14:41:31.856Z,18.90
2022-11-29T14:44:09.204Z,18.73
2022-11-29T14:46:39.369Z,18.33
2022-11-29T14:49:13.088Z,18.38
2022-11-29T14:51:42.326Z,19.25
2022-11-29T14:54:13.251Z,18.75
2022-11-29T14:56:52.862Z,19.13
2022-11-29T14:59:41.693Z,18.35
2022-11-29T15:02:24.413Z,18.35
2022-11-29T15:04:56.094Z,17.52
2022-11-29T15:07:27.802Z,18.13
2022-11-29T15:10:01.805Z,19.07
2022-11-29T15:12:34.508Z,19.70
2022-11-29T15:15:12.138Z,19.63
2022-11-29T15:17:48.517Z,19.20
2022-11-29T15:20:26.084Z,21.05
2022-11-29T15:23:01.608Z,20.58
2022-11-29T15:25:36.985Z,21.73
2022-11-29T15:28:09.056Z,21.55
2022-11-29T15:30:37.019Z,22.00
2022-11-29T15:33:09.923Z,22.70
2022-11-29T15:35:45.997Z,21.33
2022-11-29T15:38:19.169Z,23.02
2022-11-29T15:40:53.042Z,23.07
2022-11-29T15:43:30.963Z,21.85
2022-11-29T15:46:02.802Z,24.70
2022-11-29T15:48:37.819Z,20.45
2022-11-29T15:51:19.237Z,27.30
2022-11-29T15:53:49.702Z,27.48
2022-11-29T15:56:18.656Z,23.45
2022-11-29T15:58:55.388Z,24.80
2022-11-29T16:01:25.832Z,32.88
2022-11-29T16:04:02.045Z,28.92
2022-11-29T16:06:34.140Z,22.52
2022-11-29T16:09:08.506Z,26.60
2022-11-29T16:11:37.245Z,31.63
2022-11-29T16:14:17.169Z,34.72
2022-11-29T16:16:55.017Z,30.05
2022-11-29T16:19:51.619Z,53.40
2022-11-29T16:22:29.683Z,46.17
2022-11-29T16:25:12.682Z,41.17
2022-11-29T16:27:46.067Z,43.55
2022-11-29T16:30:23.479Z,39.85
2022-11-29T16:33:04.212Z,32.03
2022-11-29T16:35:38.572Z,31.13
2022-11-29T16:38:10.978Z,38.20
2022-11-29T16:40:43.616Z,35.28
2022-11-29T16:43:10.878Z,32.08
2022-11-29T16:45:41.901Z,29.08
2022-11-29T16:48:28.560Z,26.25
2022-11-29T16:51:17.540Z,28.10
2022-11-29T16:53:54.578Z,30.00
2022-11-29T16:56:25.965Z,29.08
2022-11-29T16:59:20.944Z,28.25
2022-11-29T17:01:56.292Z,27.25
2022-11-29T17:04:25.851Z,24.70
2022-11-29T17:06:59.709Z,27.75
2022-11-29T17:09:35.463Z,26.50
2022-11-29T17:14:39.538Z,28.02
2022-11-29T17:17:14.281Z,29.10
2022-11-29T17:19:41.789Z,27.23
2022-11-29T17:22:11.354Z,30.17
2022-11-29T17:24:47.626Z,29.70
2022-11-29T17:27:24.419Z,31.17
2022-11-29T17:29:53.263Z,30.15
2022-11-29T17:32:26.524Z,30.95
2022-11-29T17:34:57.073Z,31.45
2022-11-29T17:37:23.976Z,31.48
2022-11-29T17:39:50.706Z,29.95
2022-11-29T17:42:17.518Z,30.38
2022-11-29T17:44:44.157Z,30.75
2022-11-29T17:47:22.237Z,31.05
2022-11-29T17:49:49.060Z,29.58
2022-11-29T17:52:15.892Z,30.35
2022-11-29T17:54:45.311Z,29.60
2022-11-29T17:57:14.429Z,31.75
2022-11-29T17:59:49.044Z,36.22
2022-11-29T18:02:31.972Z,30.80
2022-11-29T18:05:01.541Z,33.38
2022-11-29T18:07:57.067Z,32.72
2022-11-29T18:10:29.886Z,29.08
2022-11-29T18:13:00.027Z,31.08
2022-11-29T18:15:32.484Z,30.00
2022-11-29T18:18:01.598Z,29.05
2022-11-29T18:20:34.353Z,29.60
2022-11-29T18:23:07.655Z,29.25
2022-11-29T18:25:39.472Z,27.63
2022-11-29T18:28:10.488Z,28.27
2022-11-29T18:30:37.758Z,28.65
2022-11-29T18:33:10.384Z,28.17
2022-11-29T18:35:39.342Z,29.80
2022-11-29T18:38:16.449Z,29.65
2022-11-29T18:40:45.822Z,29.75
2022-11-29T18:43:18.848Z,29.35
2022-11-29T18:45:50.958Z,28.17
2022-11-29T18:48:18.218Z,28.33
2022-11-29T18:50:51.142Z,29.63
2022-11-29T18:53:23.485Z,27.73
2022-11-29T18:56:01.056Z,27.92
2022-11-29T18:58:28.784Z,28.00
2022-11-29T19:01:07.338Z,30.98
2022-11-29T19:03:38.450Z,34.58
2022-11-29T19:06:06.442Z,30.13
2022-11-29T19:08:40.127Z,33.65
2022-11-29T19:11:19.403Z,33.63
2022-11-29T19:13:49.473Z,32.22
2022-11-29T19:16:18.923Z,29.63
2022-11-29T19:18:55.611Z,34.05
2022-11-29T19:21:27.974Z,34.50
2022-11-29T19:23:59.114Z,33.60
2022-11-29T19:26:32.720Z,30.13
2022-11-29T19:29:02.938Z,31.58
2022-11-29T19:31:32.098Z,30.58
2022-11-29T19:34:01.804Z,28.77
2022-11-29T19:36:32.608Z,28.13
2022-11-29T19:39:02.571Z,28.38
2022-11-29T19:41:30.956Z,29.70
2022-11-29T19:44:04.499Z,29.33
2022-11-29T19:46:35.989Z,31.05
2022-11-29T19:49:05.949Z,33.70
2022-11-29T19:51:33.205Z,34.78
2022-11-29T19:54:06.775Z,32.35
2022-11-29T19:56:33.632Z,28.35
2022-11-29T19:59:03.675Z,39.17
2022-11-29T20:01:42.784Z,32.97
2022-11-29T20:04:10.776Z,26.13
2022-11-29T20:06:40.727Z,25.95
2022-11-29T20:09:10.211Z,28.70
2022-11-29T20:11:38.102Z,28.05
2022-11-29T20:14:13.022Z,29.10
2022-11-29T20:16:39.754Z,28.98
2022-11-29T20:19:14.060Z,29.17
2022-11-29T20:21:42.594Z,30.75
2022-11-29T20:24:09.743Z,29.67
2022-11-29T20:26:37.150Z,30.48
2022-11-29T20:29:05.175Z,29.02
2022-11-29T20:31:32.835Z,30.92
2022-11-29T20:33:59.893Z,30.00
2022-11-29T20:36:46.563Z,31.63
2022-11-29T20:39:22.244Z,31.63
2022-11-29T20:42:04.752Z,33.03
2022-11-29T20:44:38.579Z,32.35
2022-11-29T20:47:12.571Z,33.85
2022-11-29T20:49:40.596Z,32.80
2022-11-29T20:52:11.142Z,33.72
2022-11-29T20:54:37.883Z,34.92
2022-11-29T20:57:04.603Z,35.67
2022-11-29T20:59:31.515Z,39.35
2022-11-29T21:02:01.155Z,36.92
2022-11-29T21:04:27.963Z,38.65
2022-11-29T21:06:54.644Z,37.05
2022-11-29T21:09:21.351Z,39.17
2022-11-29T21:11:48.105Z,41.55
2022-11-29T21:14:14.890Z,40.05
2022-11-29T21:16:41.900Z,40.65
2022-11-29T21:19:12.308Z,39.42
2022-11-29T21:21:46.260Z,39.65
2022-11-29T21:24:18.999Z,36.65
2022-11-29T21:26:49.848Z,36.70
2022-11-29T21:29:17.095Z,39.28
2022-11-29T21:31:44.297Z,38.10
2022-11-29T21:34:11.010Z,37.25
2022-11-29T21:36:38.312Z,36.65
2022-11-29T21:39:06.221Z,35.55
2022-11-29T21:41:33.362Z,35.00
2022-11-29T21:44:08.204Z,33.90
2022-11-29T21:46:35.737Z,33.58
2022-11-29T21:49:02.759Z,33.63
2022-11-29T21:51:29.590Z,35.55
2022-11-29T21:53:56.313Z,37.47
2022-11-29T21:56:23.097Z,41.28
2022-11-29T21:58:50.106Z,35.88
2022-11-29T22:01:18.568Z,36.30
2022-11-29T22:03:45.635Z,35.92
2022-11-29T22:06:14.230Z,35.78
2022-11-29T22:08:42.375Z,36.78
2022-11-29T22:11:10.405Z,37.67
2022-11-29T22:13:58.152Z,36.38
2022-11-29T22:16:25.595Z,36.20
2022-11-29T22:18:52.343Z,34.75
2022-11-29T22:21:19.373Z,34.83
2022-11-29T22:23:46.102Z,32.85
2022-11-29T22:26:12.959Z,34.13
2022-11-29T22:28:39.613Z,36.10
2022-11-29T22:31:07.955Z,34.42
2022-11-29T22:33:35.119Z,34.55
2022-11-29T22:36:05.945Z,34.28
2022-11-29T22:38:32.837Z,33.50
2022-11-29T22:41:00.892Z,34.10
2022-11-29T22:43:27.976Z,34.58
2022-11-29T22:45:54.653Z,37.03
2022-11-29T22:48:21.342Z,35.78
2022-11-29T22:50:47.990Z,34.38
2022-11-29T22:53:14.618Z,34.53
2022-11-29T22:55:43.014Z,35.95
2022-11-29T22:58:09.755Z,33.75
2022-11-29T23:00:44.049Z,34.88
2022-11-29T23:03:11.073Z,40.20
2022-11-29T23:05:38.097Z,36.53
2022-11-29T23:08:05.113Z,36.58
2022-11-29T23:10:31.786Z,35.50
2022-11-29T23:12:59.002Z,38.95
2022-11-29T23:15:25.882Z,35.15
2022-11-29T23:17:52.549Z,34.50
2022-11-29T23:20:21.864Z,35.88
2022-11-29T23:22:49.538Z,35.35
2022-11-29T23:25:16.277Z,35.65
2022-11-29T23:27:42.977Z,37.20
2022-11-29T23:30:09.911Z,37.88
2022-11-29T23:32:37.207Z,38.90
2022-11-29T23:35:04.227Z,37.88
2022-11-29T23:37:30.893Z,37.72
2022-11-29T23:39:57.641Z,38.00
2022-11-29T23:42:24.391Z,35.90
2022-11-29T23:44:51.126Z,37.28
2022-11-29T23:47:17.825Z,35.55
2022-11-29T23:49:44.495Z,35.22
2022-11-29T23:52:11.303Z,34.67
2022-11-29T23:54:38.020Z,33.47
2022-11-29T23:57:06.978Z,35.83
2022-11-29T23:59:33.807Z,33.13
